Aérodrome :
LOGIN :

S'inscrire | Disclaimer

   EN    FR    IT 

 










Légende :    VFR   VFR Marginal   IFR   IFR Intensif   IFR Très Intensif
Visi : 
Plafond : 
>= 8 km
>= 3000ft
5 à 8 km
1000 à 3000 ft
1500m à 5 km
500 à 1000 ft
800 à 1500m
200 à 500 ft
< 800m
< 200 ft
Symboles :   Orages  Brouillard  Fortes neiges  Fortes précipitations  Vent > 20 kt
SIGMETs :   Divers  Orages  Givrage  Turbulence  Onde Orograph.  Cendres Volcan.







- Altitude de l'aérodrome : 187 ft


ETNW - Wunstorf AB

DERNIER METAR :
  • 221035Z 31012KT 9999 FEW012 BKN015 BKN025 12/08 Q1018 WHT WHT BECMG BLU

METARs EXPIRÉS :
  • 221020Z 30013KT 9999 FEW012 SCT015 BKN025 12/09 Q1017 BLU BLU TEMPO WHT
  • 221010Z 32013KT 9999 SCT015 BKN020 12/09 Q1017 WHT WHT BECMG BLU
  • 220920Z 31012KT 9999 SCT008 BKN010 11/09 Q1017 GRN GRN BECMG WHT
  • 220837Z 30013KT 9999 FEW005 BKN007 11/09 Q1017 GRN GRN
  • 220820Z 31013KT 9999 -DZ FEW005 BKN006 11/09 Q1016 YLO YLO BECMG GRN

TAF TAF ETNW
Valide du 22 à 11h jusqu'au 23 à 11h UTC


221020Z 2211/2311 29012G22KT 9000 NSW BKN020 SCT150
BECMG 2211/2213 29012G22KT 9999 NSW BKN030
BECMG 2220/2222 24005KT 8000 NSW FEW050
TEMPO 2303/2305 VRB03KT 4000 BR SCT180 BY ETGL
Pas de NOTAMs connus pour ce terrain.



MET'MAP, la Météo Aéronautique d'un coup d'oeil ! - Copyright ORBIFLY Décembre 2007 - Disclaimer

ORBIFLY MET'MAP TEAM :

Programmation & Développement : Alexandra Zaïnal
Conception & Développement : Baudouin d'Aumeries
Co-Programmation & Développement : Marc-Olivier Méhu
Soutien technique & logistique : Manuel Goepfert

Contact : metmap@orbifly.com




SOURCES & CREDITS :

   NOAA